Chrisney, Indiana
Current Conditions -  °F | °C
As of 2:55 PM on Friday 31 Oct 2014 (Local Time) from KHNB Reporting Station
Broken Clouds Broken Clouds  
Wind Chill: 34°   Ceiling: 7500
Heat Index: 43°   Visibility: 10mi
Dew Point: 28°   Wind: 23mph
Humidity: 57%   Direction: 360°N
Pressure: 30.09"   Gusts: 35mph
Location:  38.01°N, 87.04°W
Report Text: KHNB 311955Z AUTO 36020G30KT 10SM FEW038 SCT045 BKN075 06/M02 A3009 RMK AO1
Loading
Personal Weather Stations






























Interactive Weather Map
Tropical Storm Tracking
New forecast layout! Learn more

10-Day Weather Forecast

Advertisements
Track Severe Weather on mobile